createdAt,value
2017-12-29T00:01:15.070Z,6.07
2017-12-29T00:03:42.713Z,8.87
2017-12-29T00:06:11.274Z,4.33
2017-12-29T00:08:39.094Z,6.87
2017-12-29T00:11:06.680Z,8.57
2017-12-29T00:13:34.251Z,10.50
2017-12-29T00:16:01.873Z,8.37
2017-12-29T00:18:29.483Z,11.43
2017-12-29T00:20:57.106Z,12.10
2017-12-29T00:23:24.675Z,9.60
2017-12-29T00:25:52.298Z,5.47
2017-12-29T00:28:19.882Z,5.87
2017-12-29T00:30:47.518Z,8.70
2017-12-29T00:33:15.242Z,7.50
2017-12-29T00:35:43.115Z,8.67
2017-12-29T00:38:10.813Z,9.13
2017-12-29T00:40:38.389Z,5.27
2017-12-29T00:43:05.996Z,7.17
2017-12-29T00:45:33.567Z,4.93
2017-12-29T00:48:01.175Z,7.43
2017-12-29T00:50:28.794Z,8.63
2017-12-29T00:52:56.745Z,6.03
2017-12-29T00:55:24.434Z,4.03
2017-12-29T00:57:52.836Z,6.07
2017-12-29T01:00:20.558Z,4.93
2017-12-29T01:02:48.139Z,9.77
2017-12-29T01:05:15.720Z,6.87
2017-12-29T01:07:43.380Z,6.50
2017-12-29T01:10:10.952Z,6.70
2017-12-29T01:12:38.612Z,5.67
2017-12-29T01:15:06.191Z,8.60
2017-12-29T01:17:33.780Z,5.30
2017-12-29T01:20:01.425Z,5.00
2017-12-29T01:22:28.993Z,6.53
2017-12-29T01:24:56.614Z,5.83
2017-12-29T01:27:24.206Z,5.87
2017-12-29T01:29:51.771Z,3.10
2017-12-29T01:32:19.393Z,8.23
2017-12-29T01:34:47.033Z,7.17
2017-12-29T01:37:14.680Z,7.27
2017-12-29T01:39:42.270Z,7.93
2017-12-29T01:42:09.970Z,6.60
2017-12-29T01:44:37.642Z,5.27
2017-12-29T01:47:05.285Z,11.10
2017-12-29T01:49:32.873Z,11.93
2017-12-29T01:52:00.486Z,7.20
2017-12-29T01:54:28.114Z,3.90
2017-12-29T01:56:55.732Z,8.13
2017-12-29T01:59:23.344Z,6.00
2017-12-29T02:01:50.916Z,3.07
2017-12-29T02:04:18.548Z,8.10
2017-12-29T02:06:46.139Z,8.43
2017-12-29T02:09:13.714Z,4.47
2017-12-29T02:11:42.145Z,5.53
2017-12-29T02:14:09.737Z,7.37
2017-12-29T02:16:37.347Z,9.37
2017-12-29T02:19:04.920Z,5.60
2017-12-29T02:21:32.545Z,7.80
2017-12-29T02:24:00.117Z,9.20
2017-12-29T02:26:27.689Z,5.57
2017-12-29T02:28:55.316Z,5.97
2017-12-29T02:31:22.888Z,7.50
2017-12-29T02:33:50.498Z,6.53
2017-12-29T02:36:18.121Z,2.30
2017-12-29T02:38:45.702Z,5.30
2017-12-29T02:41:13.314Z,9.50
2017-12-29T02:43:40.962Z,8.27
2017-12-29T02:46:08.534Z,11.63
2017-12-29T02:48:36.107Z,8.07
2017-12-29T02:51:04.471Z,7.67
2017-12-29T02:53:32.045Z,8.53
2017-12-29T02:55:59.671Z,8.30
2017-12-29T02:58:27.410Z,11.97
2017-12-29T03:00:54.982Z,13.30
2017-12-29T03:03:22.548Z,9.37
2017-12-29T03:05:50.207Z,8.63
2017-12-29T03:08:17.766Z,7.13
2017-12-29T03:10:45.404Z,9.63
2017-12-29T03:13:12.984Z,5.43
2017-12-29T03:15:40.599Z,7.53
2017-12-29T03:18:08.940Z,11.07
2017-12-29T03:20:36.551Z,9.27
2017-12-29T03:23:04.122Z,13.60
2017-12-29T03:25:31.691Z,7.67
2017-12-29T03:27:59.392Z,8.97
2017-12-29T03:30:26.975Z,12.40
2017-12-29T03:32:54.565Z,12.83
2017-12-29T03:35:22.162Z,9.20
2017-12-29T03:37:49.875Z,9.23
2017-12-29T03:40:18.211Z,15.40
2017-12-29T03:42:45.788Z,18.83
2017-12-29T03:45:13.408Z,22.40
2017-12-29T03:47:40.985Z,17.13
2017-12-29T03:50:08.656Z,18.40
2017-12-29T03:52:37.078Z,18.93
2017-12-29T03:55:05.460Z,21.23
2017-12-29T03:57:33.812Z,16.87
2017-12-29T04:00:01.433Z,17.50
2017-12-29T04:02:29.011Z,16.13
2017-12-29T04:04:56.588Z,20.00
2017-12-29T04:07:24.217Z,23.07
2017-12-29T04:09:51.845Z,18.83
2017-12-29T04:12:19.417Z,15.70
2017-12-29T04:14:47.101Z,21.73
2017-12-29T04:17:14.725Z,22.50
2017-12-29T04:19:43.112Z,23.43
2017-12-29T04:22:11.448Z,19.57
2017-12-29T04:24:39.067Z,22.53
2017-12-29T04:27:06.681Z,16.07
2017-12-29T04:29:34.336Z,20.67
2017-12-29T04:32:01.957Z,24.00
2017-12-29T04:34:29.532Z,17.87
2017-12-29T04:36:57.275Z,25.93
2017-12-29T04:39:24.848Z,20.73
2017-12-29T04:41:52.427Z,33.90
2017-12-29T04:44:20.079Z,20.67
2017-12-29T04:46:47.691Z,26.37
2017-12-29T04:49:15.312Z,22.73
2017-12-29T04:51:43.076Z,27.57
2017-12-29T04:54:10.787Z,22.17
2017-12-29T04:56:38.428Z,32.00
2017-12-29T04:59:06.030Z,27.20
2017-12-29T05:01:33.649Z,25.33
2017-12-29T05:04:01.323Z,22.63
2017-12-29T05:06:29.688Z,30.83
2017-12-29T05:08:57.262Z,29.13
2017-12-29T05:11:24.868Z,24.07
2017-12-29T05:13:52.454Z,17.80
2017-12-29T05:16:20.069Z,23.80
2017-12-29T05:18:47.697Z,17.93
2017-12-29T05:21:15.390Z,21.20
2017-12-29T05:23:43.762Z,20.70
2017-12-29T05:26:12.100Z,14.80
2017-12-29T05:28:39.893Z,14.47
2017-12-29T05:31:07.509Z,18.30
2017-12-29T05:33:35.138Z,17.57
2017-12-29T05:36:03.523Z,22.13
2017-12-29T05:38:31.104Z,16.20
2017-12-29T05:40:58.736Z,15.07
2017-12-29T05:43:27.075Z,19.47
2017-12-29T05:45:54.764Z,16.67
2017-12-29T05:48:22.352Z,16.87
2017-12-29T05:50:49.982Z,16.47
2017-12-29T05:53:17.555Z,15.30
2017-12-29T05:55:45.914Z,15.20
2017-12-29T05:58:13.547Z,17.87
2017-12-29T06:00:41.179Z,16.60
2017-12-29T06:03:08.797Z,17.67
2017-12-29T06:05:36.400Z,17.43
2017-12-29T06:08:04.125Z,14.67
2017-12-29T06:10:31.755Z,15.07
2017-12-29T06:12:59.373Z,19.50
2017-12-29T06:15:27.775Z,18.57
2017-12-29T06:17:55.349Z,14.80
2017-12-29T06:20:22.959Z,16.93
2017-12-29T06:22:50.603Z,16.43
2017-12-29T06:25:18.216Z,17.27
2017-12-29T06:27:45.792Z,19.00
2017-12-29T06:30:13.417Z,22.73
2017-12-29T06:32:41.761Z,17.33
2017-12-29T06:35:09.421Z,16.83
2017-12-29T06:37:37.031Z,21.50
2017-12-29T06:40:05.410Z,17.87
2017-12-29T06:42:33.805Z,20.80
2017-12-29T06:45:01.429Z,18.50
2017-12-29T06:47:29.032Z,19.10
2017-12-29T06:49:56.647Z,16.10
2017-12-29T06:52:24.254Z,18.67
2017-12-29T06:54:51.892Z,24.90
2017-12-29T06:57:19.463Z,16.20
2017-12-29T06:59:47.803Z,27.27
2017-12-29T07:02:15.435Z,23.07
2017-12-29T07:04:43.014Z,22.47
2017-12-29T07:07:10.627Z,17.60
2017-12-29T07:09:38.211Z,20.93
2017-12-29T07:12:05.857Z,19.03
2017-12-29T07:14:33.467Z,20.20
2017-12-29T07:17:01.083Z,17.77
2017-12-29T07:19:28.709Z,18.60
2017-12-29T07:21:56.300Z,16.53
2017-12-29T07:24:24.148Z,20.10
2017-12-29T07:26:52.000Z,24.30
2017-12-29T07:29:19.575Z,24.40
2017-12-29T07:31:47.199Z,22.13
2017-12-29T07:34:14.776Z,21.83
2017-12-29T07:36:42.449Z,24.17
2017-12-29T07:39:10.014Z,25.50
2017-12-29T07:41:37.600Z,24.70
2017-12-29T07:44:05.239Z,28.83
2017-12-29T07:46:32.826Z,26.90
2017-12-29T07:49:00.480Z,23.03
2017-12-29T07:51:28.112Z,34.77
2017-12-29T07:53:55.739Z,28.77
2017-12-29T07:56:23.322Z,25.93
2017-12-29T07:58:50.983Z,27.17
2017-12-29T08:01:18.612Z,33.37
2017-12-29T08:03:46.274Z,24.30
2017-12-29T08:06:16.467Z,37.40
2017-12-29T08:08:45.856Z,31.17
2017-12-29T08:11:13.472Z,33.30
2017-12-29T08:13:41.179Z,28.63
2017-12-29T08:16:08.827Z,33.53
2017-12-29T08:18:36.434Z,30.20
2017-12-29T08:21:04.009Z,31.60
2017-12-29T08:23:31.691Z,31.63
2017-12-29T08:25:59.275Z,34.87
2017-12-29T08:28:26.947Z,36.00
2017-12-29T08:30:54.531Z,35.90
2017-12-29T08:33:22.891Z,38.53
2017-12-29T08:35:50.506Z,34.97
2017-12-29T08:38:18.084Z,35.83
2017-12-29T08:40:45.719Z,36.60
2017-12-29T08:43:13.320Z,36.57
2017-12-29T08:45:40.906Z,37.10
2017-12-29T08:48:08.538Z,34.20
2017-12-29T08:50:36.121Z,31.87
2017-12-29T08:53:03.742Z,43.20
2017-12-29T08:55:31.317Z,29.43
2017-12-29T08:57:58.935Z,40.37
2017-12-29T09:00:26.557Z,34.70
2017-12-29T09:02:54.171Z,35.63
2017-12-29T09:05:21.754Z,36.83
2017-12-29T09:07:49.768Z,33.70
2017-12-29T09:10:18.124Z,35.33
2017-12-29T09:12:45.712Z,38.40
2017-12-29T09:15:13.337Z,34.30
2017-12-29T09:17:40.923Z,34.33
2017-12-29T09:20:08.539Z,36.30
2017-12-29T09:22:36.127Z,31.23
2017-12-29T09:25:03.770Z,31.30
2017-12-29T09:27:31.345Z,31.20
2017-12-29T09:29:58.977Z,30.83
2017-12-29T09:32:26.592Z,30.40
2017-12-29T09:34:54.216Z,26.83
2017-12-29T09:37:21.804Z,35.60
2017-12-29T09:39:49.425Z,33.67
2017-12-29T09:42:17.041Z,29.53
2017-12-29T09:44:44.622Z,28.10
2017-12-29T09:47:12.246Z,27.77
2017-12-29T09:49:39.838Z,28.97
2017-12-29T09:52:07.419Z,28.63
2017-12-29T09:54:35.051Z,32.77
2017-12-29T09:57:02.648Z,31.60
2017-12-29T09:59:30.228Z,26.17
2017-12-29T10:01:57.859Z,30.60
2017-12-29T10:04:25.446Z,28.83
2017-12-29T10:06:53.030Z,27.07
2017-12-29T10:09:20.656Z,30.87
2017-12-29T10:11:48.240Z,28.80
2017-12-29T10:14:15.850Z,21.10
2017-12-29T10:16:43.456Z,31.57
2017-12-29T10:19:11.035Z,21.87
2017-12-29T10:21:38.687Z,25.63
2017-12-29T10:24:06.306Z,27.20
2017-12-29T10:26:33.887Z,22.57
2017-12-29T10:29:01.506Z,26.63
2017-12-29T10:31:29.207Z,23.53
2017-12-29T10:33:56.841Z,25.97
2017-12-29T10:36:24.421Z,21.23
2017-12-29T10:38:52.013Z,20.30
2017-12-29T10:41:19.638Z,19.87
2017-12-29T10:43:47.986Z,26.27
2017-12-29T10:46:15.614Z,20.00
2017-12-29T10:48:43.191Z,23.63
2017-12-29T10:51:10.798Z,23.23
2017-12-29T10:53:38.426Z,18.20
2017-12-29T10:56:06.094Z,17.03
2017-12-29T10:58:33.675Z,20.13
2017-12-29T11:01:02.031Z,20.00
2017-12-29T11:03:29.656Z,19.67
2017-12-29T11:05:57.228Z,16.17
2017-12-29T11:08:24.841Z,19.07
2017-12-29T11:10:52.425Z,16.80
2017-12-29T11:13:20.054Z,21.30
2017-12-29T11:15:47.643Z,13.83
2017-12-29T11:18:15.224Z,15.57
2017-12-29T11:20:42.835Z,17.50
2017-12-29T11:23:10.406Z,16.40
2017-12-29T11:25:38.785Z,16.13
2017-12-29T11:28:07.169Z,13.60
2017-12-29T11:30:35.551Z,11.97
2017-12-29T11:33:03.885Z,10.90
2017-12-29T11:35:31.499Z,14.93
2017-12-29T11:37:59.068Z,14.03
2017-12-29T11:40:26.707Z,9.80
2017-12-29T11:42:54.291Z,18.77
2017-12-29T11:45:21.860Z,14.83
2017-12-29T11:47:49.481Z,9.83
2017-12-29T11:50:17.101Z,10.23
2017-12-29T11:52:44.761Z,12.33
2017-12-29T11:55:12.382Z,14.17
2017-12-29T11:57:40.006Z,17.43
2017-12-29T12:00:07.578Z,10.67
2017-12-29T12:02:35.199Z,13.37
2017-12-29T12:05:02.770Z,11.37
2017-12-29T12:07:30.385Z,13.30
2017-12-29T12:09:58.011Z,14.00
2017-12-29T12:12:25.603Z,13.50
2017-12-29T12:14:53.176Z,12.73
2017-12-29T12:17:21.563Z,19.57
2017-12-29T12:19:49.183Z,15.63
2017-12-29T12:22:16.814Z,15.20
2017-12-29T12:24:44.439Z,15.17
2017-12-29T12:27:14.535Z,13.03
2017-12-29T12:29:42.915Z,17.23
2017-12-29T12:32:10.534Z,18.67
2017-12-29T12:34:38.145Z,16.40
2017-12-29T12:37:05.733Z,17.43
2017-12-29T12:39:33.359Z,21.03
2017-12-29T12:42:00.944Z,18.27
2017-12-29T12:44:28.560Z,19.80
2017-12-29T12:46:56.187Z,20.77
2017-12-29T12:49:23.769Z,16.27
2017-12-29T12:51:51.379Z,17.73
2017-12-29T12:54:18.962Z,19.83
2017-12-29T12:56:46.591Z,19.23
2017-12-29T12:59:14.209Z,16.87
2017-12-29T13:01:41.820Z,14.90
2017-12-29T13:04:09.460Z,15.23
2017-12-29T13:06:37.041Z,18.03
2017-12-29T13:09:04.620Z,13.97
2017-12-29T13:11:33.010Z,12.47
2017-12-29T13:14:00.623Z,17.30
2017-12-29T13:16:28.244Z,12.63
2017-12-29T13:18:55.866Z,11.87
2017-12-29T13:21:23.484Z,13.40
2017-12-29T13:23:51.063Z,11.33
2017-12-29T13:26:18.677Z,14.70
2017-12-29T13:28:46.251Z,11.27
2017-12-29T13:31:13.861Z,13.57
2017-12-29T13:33:41.449Z,10.30
2017-12-29T13:36:09.060Z,15.77
2017-12-29T13:38:36.673Z,14.73
2017-12-29T13:41:04.256Z,10.17
2017-12-29T13:43:31.886Z,10.40
2017-12-29T13:45:59.460Z,10.70
2017-12-29T13:48:29.948Z,8.17
2017-12-29T13:50:57.560Z,7.77
2017-12-29T13:53:25.144Z,8.57
2017-12-29T13:55:52.763Z,9.30
2017-12-29T13:58:21.143Z,7.77
2017-12-29T14:00:49.492Z,10.83
2017-12-29T14:03:17.102Z,14.47
2017-12-29T14:05:44.678Z,6.63
2017-12-29T14:08:12.296Z,9.40
2017-12-29T14:10:42.538Z,9.97
2017-12-29T14:13:10.112Z,10.30
2017-12-29T14:15:37.728Z,9.30
2017-12-29T14:18:05.347Z,13.77
2017-12-29T14:20:32.911Z,7.83
2017-12-29T14:23:00.526Z,12.33
2017-12-29T14:25:28.136Z,9.50
2017-12-29T14:27:55.752Z,8.77
2017-12-29T14:30:23.378Z,11.97
2017-12-29T14:32:50.982Z,9.77
2017-12-29T14:35:18.547Z,9.90
2017-12-29T14:37:46.929Z,11.20
2017-12-29T14:40:15.259Z,9.23
2017-12-29T14:42:42.876Z,9.10
2017-12-29T14:45:10.443Z,11.60
2017-12-29T14:47:38.012Z,8.77
2017-12-29T14:50:05.619Z,8.77
2017-12-29T14:52:33.193Z,6.67
2017-12-29T14:55:00.805Z,6.07
2017-12-29T14:57:28.375Z,8.83
2017-12-29T14:59:55.988Z,7.17
2017-12-29T15:02:23.556Z,8.67
2017-12-29T15:04:51.132Z,12.10
2017-12-29T15:07:18.749Z,6.00
2017-12-29T15:09:46.359Z,6.17
2017-12-29T15:12:13.999Z,7.50
2017-12-29T15:14:42.487Z,6.53
2017-12-29T15:17:10.821Z,6.60
2017-12-29T15:19:38.392Z,6.73
2017-12-29T15:22:06.002Z,5.57
2017-12-29T15:24:33.573Z,6.70
2017-12-29T15:27:01.183Z,6.40
2017-12-29T15:29:28.782Z,8.90
2017-12-29T15:31:56.391Z,6.80
2017-12-29T15:34:24.017Z,8.03
2017-12-29T15:36:51.636Z,6.83
2017-12-29T15:39:19.260Z,4.93
2017-12-29T15:41:46.895Z,4.63
2017-12-29T15:44:14.459Z,6.20
2017-12-29T15:46:42.066Z,4.77
2017-12-29T15:49:09.677Z,5.60
2017-12-29T15:51:37.290Z,6.40
2017-12-29T15:54:05.893Z,8.23
2017-12-29T15:56:35.002Z,4.17
2017-12-29T15:59:02.618Z,5.17
2017-12-29T16:01:37.123Z,5.13
2017-12-29T16:04:07.726Z,7.57
2017-12-29T16:06:37.183Z,5.47
2017-12-29T16:09:04.855Z,4.57
2017-12-29T16:11:32.425Z,6.80
2017-12-29T16:14:00.056Z,5.40
2017-12-29T16:16:27.628Z,7.77
2017-12-29T16:18:55.187Z,4.77
2017-12-29T16:21:22.794Z,5.90
2017-12-29T16:23:50.398Z,5.07
2017-12-29T16:26:17.968Z,6.17
2017-12-29T16:28:45.587Z,8.93
2017-12-29T16:31:13.155Z,7.73
2017-12-29T16:33:40.729Z,6.33
2017-12-29T16:36:08.337Z,5.93
2017-12-29T16:38:35.960Z,8.23
2017-12-29T16:41:03.534Z,5.90
2017-12-29T16:43:31.117Z,5.53
2017-12-29T16:45:58.731Z,7.97
2017-12-29T16:48:26.347Z,10.17
2017-12-29T16:50:53.962Z,7.70
2017-12-29T16:53:21.617Z,8.77
2017-12-29T16:55:49.167Z,6.60
2017-12-29T16:58:16.780Z,9.43
2017-12-29T17:00:44.347Z,10.77
2017-12-29T17:03:11.954Z,8.87
2017-12-29T17:05:39.518Z,7.50
2017-12-29T17:08:07.154Z,8.70
2017-12-29T17:10:34.760Z,9.70
2017-12-29T17:13:02.333Z,6.73
2017-12-29T17:15:29.952Z,9.00
2017-12-29T17:17:57.702Z,6.47
2017-12-29T17:20:25.278Z,11.70
2017-12-29T17:22:52.847Z,9.20
2017-12-29T17:25:20.507Z,12.17
2017-12-29T17:27:48.822Z,7.30
2017-12-29T17:30:16.425Z,9.43
2017-12-29T17:32:44.043Z,9.17
2017-12-29T17:35:11.608Z,10.10
2017-12-29T17:37:39.221Z,7.77
2017-12-29T17:40:06.805Z,8.00
2017-12-29T17:42:34.430Z,16.97
2017-12-29T17:45:02.045Z,8.93
2017-12-29T17:47:29.656Z,10.57
2017-12-29T17:49:57.271Z,8.40
2017-12-29T17:52:24.841Z,6.37
2017-12-29T17:54:52.454Z,13.67
2017-12-29T17:57:20.069Z,6.43
2017-12-29T17:59:47.636Z,7.73
2017-12-29T18:02:15.533Z,9.40
2017-12-29T18:04:43.107Z,9.77
2017-12-29T18:07:10.717Z,9.47
2017-12-29T18:09:38.290Z,7.10
2017-12-29T18:12:05.895Z,8.80
2017-12-29T18:14:33.508Z,7.43
2017-12-29T18:17:01.088Z,7.27
2017-12-29T18:19:29.416Z,7.63
2017-12-29T18:21:57.021Z,7.63
2017-12-29T18:24:24.596Z,7.30
2017-12-29T18:26:52.223Z,7.40
2017-12-29T18:29:19.795Z,7.37
2017-12-29T18:31:47.363Z,10.37
2017-12-29T18:34:15.746Z,9.37
2017-12-29T18:36:44.083Z,9.13
2017-12-29T18:39:11.687Z,7.30
2017-12-29T18:41:39.295Z,7.37
2017-12-29T18:44:06.860Z,8.23
2017-12-29T18:46:34.472Z,7.23
2017-12-29T18:49:02.035Z,7.70
2017-12-29T18:51:30.402Z,9.10
2017-12-29T18:53:58.011Z,7.43
2017-12-29T18:56:25.628Z,7.47
2017-12-29T18:58:53.961Z,8.33
2017-12-29T19:01:21.721Z,8.60
2017-12-29T19:03:49.344Z,8.47
2017-12-29T19:06:16.909Z,8.00
2017-12-29T19:08:44.484Z,8.83
2017-12-29T19:11:12.095Z,8.37
2017-12-29T19:13:39.706Z,9.40
2017-12-29T19:16:07.310Z,8.57
2017-12-29T19:18:34.882Z,9.23
2017-12-29T19:21:02.506Z,10.00
2017-12-29T19:23:30.081Z,9.23
2017-12-29T19:25:57.697Z,9.77
2017-12-29T19:28:25.309Z,10.73
2017-12-29T19:30:52.888Z,10.70
2017-12-29T19:33:20.509Z,9.77
2017-12-29T19:35:48.128Z,10.97
2017-12-29T19:38:15.729Z,9.93
2017-12-29T19:40:43.356Z,10.57
2017-12-29T19:43:10.937Z,12.00
2017-12-29T19:45:38.542Z,11.30
2017-12-29T19:48:06.161Z,12.20
2017-12-29T19:50:33.730Z,11.40
2017-12-29T19:53:01.346Z,12.13
2017-12-29T19:55:28.933Z,13.87
2017-12-29T19:57:57.311Z,12.77
2017-12-29T20:00:25.706Z,12.90
2017-12-29T20:02:53.278Z,14.03
2017-12-29T20:05:20.901Z,15.60
2017-12-29T20:07:49.242Z,16.00
2017-12-29T20:10:16.862Z,17.13
2017-12-29T20:12:44.446Z,18.17
2017-12-29T20:15:12.066Z,19.03
2017-12-29T20:17:39.687Z,21.10
2017-12-29T20:20:07.260Z,21.17
2017-12-29T20:22:34.878Z,23.10
2017-12-29T20:25:02.454Z,21.93
2017-12-29T20:27:30.081Z,22.53
2017-12-29T20:29:57.662Z,20.57
2017-12-29T20:32:25.277Z,24.27
2017-12-29T20:34:52.918Z,24.80
2017-12-29T20:37:20.496Z,25.83
2017-12-29T20:39:48.071Z,28.30
2017-12-29T20:42:15.690Z,24.97
2017-12-29T20:44:43.272Z,24.73
2017-12-29T20:47:10.885Z,26.53
2017-12-29T20:49:38.521Z,27.40
2017-12-29T20:52:06.930Z,28.13
2017-12-29T20:54:34.508Z,25.73
2017-12-29T20:57:02.080Z,25.97
2017-12-29T20:59:29.700Z,26.93
2017-12-29T21:01:57.279Z,29.93
2017-12-29T21:04:24.927Z,28.40
2017-12-29T21:06:52.526Z,28.60
2017-12-29T21:09:20.120Z,30.87
2017-12-29T21:11:48.503Z,31.23
2017-12-29T21:14:16.845Z,31.80
2017-12-29T21:16:44.456Z,30.60
2017-12-29T21:19:12.044Z,33.50
2017-12-29T21:21:39.654Z,28.53
2017-12-29T21:24:07.232Z,30.53
2017-12-29T21:26:35.631Z,33.47
2017-12-29T21:29:03.979Z,31.63
2017-12-29T21:31:31.614Z,35.80
2017-12-29T21:33:59.584Z,33.10
2017-12-29T21:36:27.339Z,33.80
2017-12-29T21:38:54.947Z,36.43
2017-12-29T21:41:22.527Z,36.90
2017-12-29T21:43:50.929Z,35.13
2017-12-29T21:46:18.512Z,34.87
2017-12-29T21:48:46.095Z,36.57
2017-12-29T21:51:13.724Z,36.37
2017-12-29T21:53:41.309Z,34.90
2017-12-29T21:56:08.919Z,32.93
2017-12-29T21:58:36.538Z,34.27
2017-12-29T22:01:04.167Z,35.00
2017-12-29T22:03:31.789Z,39.37
2017-12-29T22:06:00.175Z,37.83
2017-12-29T22:08:28.524Z,36.90
2017-12-29T22:10:56.149Z,42.43
2017-12-29T22:13:23.732Z,38.07
2017-12-29T22:15:51.351Z,37.53
2017-12-29T22:18:18.971Z,36.20
2017-12-29T22:20:46.575Z,37.30
2017-12-29T22:23:14.160Z,38.33
2017-12-29T22:25:41.780Z,36.43
2017-12-29T22:28:10.178Z,35.07
2017-12-29T22:30:37.762Z,34.30
2017-12-29T22:33:05.335Z,35.87
2017-12-29T22:35:32.946Z,34.80
2017-12-29T22:38:00.524Z,36.47
2017-12-29T22:40:28.164Z,35.83
2017-12-29T22:42:55.745Z,36.13
2017-12-29T22:45:23.326Z,41.13
2017-12-29T22:47:50.954Z,35.37
2017-12-29T22:50:19.351Z,35.07
2017-12-29T22:52:46.932Z,37.97
2017-12-29T22:55:14.517Z,37.40
2017-12-29T22:57:42.132Z,39.30
2017-12-29T23:00:09.715Z,37.87
2017-12-29T23:02:37.347Z,40.10
2017-12-29T23:05:04.924Z,40.77
2017-12-29T23:07:32.513Z,39.63
2017-12-29T23:10:00.125Z,37.77
2017-12-29T23:12:27.700Z,38.23
2017-12-29T23:14:55.283Z,39.77
2017-12-29T23:17:22.906Z,40.30
2017-12-29T23:19:51.248Z,32.87
2017-12-29T23:22:18.860Z,38.53
2017-12-29T23:24:46.486Z,34.10
2017-12-29T23:27:14.050Z,34.63
2017-12-29T23:29:41.661Z,36.23
2017-12-29T23:32:09.245Z,36.83
2017-12-29T23:34:36.867Z,30.23
2017-12-29T23:37:04.446Z,31.43
2017-12-29T23:39:32.031Z,35.33
2017-12-29T23:42:00.596Z,34.27
2017-12-29T23:44:28.181Z,29.60
2017-12-29T23:46:56.067Z,28.17
2017-12-29T23:49:26.656Z,31.27
2017-12-29T23:51:55.289Z,29.50
2017-12-29T23:54:22.882Z,31.00
2017-12-29T23:56:50.492Z,30.87
2017-12-29T23:59:18.068Z,27.80
